createdAt,value
2018-01-01T00:00:40.634Z,40.50
2018-01-01T00:01:43.694Z,50.50
2018-01-01T00:02:47.226Z,49.50
2018-01-01T00:03:50.385Z,50.50
2018-01-01T00:04:53.476Z,39.50
2018-01-01T00:05:56.566Z,39.00
2018-01-01T00:06:59.699Z,47.50
2018-01-01T00:08:03.789Z,46.00
2018-01-01T00:09:07.375Z,33.00
2018-01-01T00:10:11.425Z,40.00
2018-01-01T00:11:14.544Z,45.00
2018-01-01T00:12:17.686Z,36.50
2018-01-01T00:13:20.758Z,30.50
2018-01-01T00:14:23.875Z,42.50
2018-01-01T00:15:27.808Z,38.50
2018-01-01T00:16:30.897Z,38.50
2018-01-01T00:17:34.920Z,32.00
2018-01-01T00:18:38.004Z,28.50
2018-01-01T00:19:41.124Z,24.00
2018-01-01T00:20:44.245Z,18.00
2018-01-01T00:21:47.754Z,27.00
2018-01-01T00:22:50.845Z,22.50
2018-01-01T00:23:53.901Z,28.00
2018-01-01T00:24:57.028Z,28.00
2018-01-01T00:26:00.101Z,16.50
2018-01-01T00:27:03.200Z,23.50
2018-01-01T00:28:06.262Z,12.00
2018-01-01T00:29:09.346Z,25.50
2018-01-01T00:30:12.403Z,21.50
2018-01-01T00:31:15.446Z,31.00
2018-01-01T00:32:18.395Z,27.50
2018-01-01T00:33:21.803Z,18.00
2018-01-01T00:34:24.824Z,23.00
2018-01-01T00:35:27.908Z,21.50
2018-01-01T00:36:32.008Z,23.50
2018-01-01T00:37:35.081Z,22.00
2018-01-01T00:38:38.155Z,28.50
2018-01-01T00:39:41.680Z,28.00
2018-01-01T00:40:44.801Z,19.50
2018-01-01T00:41:47.885Z,28.50
2018-01-01T00:42:50.974Z,33.00
2018-01-01T00:43:54.070Z,29.50
2018-01-01T00:44:57.120Z,36.50
2018-01-01T00:46:00.231Z,42.00
2018-01-01T00:47:03.332Z,32.50
2018-01-01T00:48:06.548Z,44.00
2018-01-01T00:49:09.627Z,28.50
2018-01-01T00:50:12.706Z,33.00
2018-01-01T00:51:15.822Z,30.50
2018-01-01T00:52:18.802Z,27.00
2018-01-01T00:53:21.815Z,23.50
2018-01-01T00:54:24.806Z,22.50
2018-01-01T00:55:27.823Z,18.00
2018-01-01T00:56:31.403Z,18.00
2018-01-01T00:57:34.799Z,10.50
2018-01-01T00:58:37.907Z,10.00
2018-01-01T00:59:40.999Z,8.00
2018-01-01T01:00:44.029Z,9.50
2018-01-01T01:01:47.121Z,10.50
2018-01-01T01:02:50.650Z,6.00
2018-01-01T01:03:53.806Z,12.00
2018-01-01T01:04:56.937Z,9.50
2018-01-01T01:05:59.997Z,9.50
2018-01-01T01:07:03.078Z,6.00
2018-01-01T01:08:06.156Z,8.00
2018-01-01T01:09:09.259Z,8.00
2018-01-01T01:10:12.357Z,6.00
2018-01-01T01:11:15.463Z,8.00
2018-01-01T01:12:18.578Z,10.50
2018-01-01T01:13:21.754Z,9.50
2018-01-01T01:14:25.368Z,5.00
2018-01-01T01:15:28.497Z,6.50
2018-01-01T01:16:31.508Z,4.00
2018-01-01T01:17:34.616Z,6.00
2018-01-01T01:18:37.785Z,8.00
2018-01-01T01:19:40.899Z,6.00
2018-01-01T01:20:45.468Z,7.50
2018-01-01T01:21:48.610Z,6.00
2018-01-01T01:22:51.745Z,6.00
2018-01-01T01:23:54.900Z,8.00
2018-01-01T01:24:57.999Z,10.00
2018-01-01T01:26:01.586Z,5.00
2018-01-01T01:27:04.703Z,7.50
2018-01-01T01:28:07.769Z,6.50
2018-01-01T01:29:10.906Z,10.00
2018-01-01T01:30:14.016Z,8.00
2018-01-01T01:31:17.069Z,8.00
2018-01-01T01:32:20.512Z,4.00
2018-01-01T01:33:23.604Z,6.00
2018-01-01T01:34:26.717Z,4.00
2018-01-01T01:35:29.690Z,6.00
2018-01-01T01:36:32.716Z,9.50
2018-01-01T01:37:36.198Z,4.00
2018-01-01T01:38:39.652Z,4.00
2018-01-01T01:39:42.735Z,4.50
2018-01-01T01:40:45.808Z,6.00
2018-01-01T01:41:48.841Z,4.00
2018-01-01T01:42:51.942Z,4.00
2018-01-01T01:43:55.013Z,6.50
2018-01-01T01:44:58.455Z,7.00
2018-01-01T01:46:01.587Z,6.00
2018-01-01T01:47:04.697Z,4.00
2018-01-01T01:48:07.783Z,5.50
2018-01-01T01:49:10.936Z,7.00
2018-01-01T01:50:14.032Z,6.00
2018-01-01T01:51:18.766Z,7.00
2018-01-01T01:52:21.835Z,5.50
2018-01-01T01:53:24.845Z,7.50
2018-01-01T01:54:27.876Z,6.00
2018-01-01T01:55:30.922Z,6.00
2018-01-01T01:56:34.008Z,5.00
2018-01-01T01:57:37.526Z,6.00
2018-01-01T01:58:41.416Z,8.00
2018-01-01T01:59:44.425Z,6.00
2018-01-01T02:00:48.490Z,4.00
2018-01-01T02:01:51.564Z,5.50
2018-01-01T02:02:54.757Z,7.50
2018-01-01T02:03:57.707Z,6.00
2018-01-01T02:05:00.724Z,5.00
2018-01-01T02:06:03.677Z,6.00
2018-01-01T02:07:06.741Z,4.50
2018-01-01T02:08:09.776Z,7.00
2018-01-01T02:09:13.203Z,6.00
2018-01-01T02:10:16.284Z,7.50
2018-01-01T02:11:19.327Z,5.50
2018-01-01T02:12:22.376Z,5.00
2018-01-01T02:13:25.527Z,4.50
2018-01-01T02:14:28.599Z,4.50
2018-01-01T02:15:32.047Z,5.50
2018-01-01T02:16:35.987Z,4.00
2018-01-01T02:17:39.073Z,8.00
2018-01-01T02:18:42.146Z,2.00
2018-01-01T02:19:45.144Z,6.00
2018-01-01T02:20:48.173Z,7.50
2018-01-01T02:21:51.682Z,4.00
2018-01-01T02:22:54.670Z,6.00
2018-01-01T02:23:57.956Z,6.00
2018-01-01T02:25:00.993Z,4.00
2018-01-01T02:26:05.208Z,4.00
2018-01-01T02:27:08.424Z,6.00
2018-01-01T02:28:11.878Z,8.00
2018-01-01T02:29:16.621Z,5.50
2018-01-01T02:30:19.723Z,6.00
2018-01-01T02:31:22.816Z,9.50
2018-01-01T02:32:25.916Z,6.00
2018-01-01T02:33:28.976Z,7.00
2018-01-01T02:34:32.389Z,4.50
2018-01-01T02:35:35.444Z,6.00
2018-01-01T02:36:38.473Z,6.00
2018-01-01T02:37:41.517Z,6.00
2018-01-01T02:38:44.567Z,6.00
2018-01-01T02:39:47.734Z,5.50
2018-01-01T02:40:51.316Z,7.50
2018-01-01T02:41:54.543Z,6.00
2018-01-01T02:42:57.710Z,7.50
2018-01-01T02:44:18.678Z,4.00
2018-01-01T02:45:21.704Z,4.00
2018-01-01T02:46:24.823Z,5.50
2018-01-01T02:47:28.339Z,2.50
2018-01-01T02:48:31.396Z,7.00
2018-01-01T02:49:34.439Z,2.50
2018-01-01T02:50:37.502Z,4.00
2018-01-01T02:51:40.423Z,2.00
2018-01-01T02:52:43.389Z,3.00
2018-01-01T02:53:46.786Z,2.00
2018-01-01T02:54:49.859Z,2.50
2018-01-01T02:55:52.772Z,2.00
2018-01-01T02:56:55.840Z,4.00
2018-01-01T02:57:58.971Z,3.00
2018-01-01T02:59:02.050Z,2.50
2018-01-01T03:00:05.564Z,2.50
2018-01-01T03:01:08.648Z,4.00
2018-01-01T03:02:11.707Z,2.00
2018-01-01T03:03:14.758Z,4.00
2018-01-01T03:04:17.855Z,2.00
2018-01-01T03:05:20.904Z,4.00
2018-01-01T03:06:24.435Z,2.00
2018-01-01T03:07:27.534Z,2.00
2018-01-01T03:08:30.664Z,2.00
2018-01-01T03:09:33.720Z,5.00
2018-01-01T03:10:37.934Z,2.00
2018-01-01T03:11:41.086Z,4.00
2018-01-01T03:12:44.544Z,2.50
2018-01-01T03:13:47.572Z,4.00
2018-01-01T03:14:50.630Z,4.00
2018-01-01T03:15:53.681Z,2.00
2018-01-01T03:16:56.729Z,3.00
2018-01-01T03:17:59.698Z,4.00
2018-01-01T03:19:03.162Z,3.00
2018-01-01T03:20:06.990Z,2.00
2018-01-01T03:21:10.044Z,4.00
2018-01-01T03:22:13.774Z,3.00
2018-01-01T03:23:16.917Z,4.00
2018-01-01T03:24:20.911Z,6.00
2018-01-01T03:25:24.445Z,2.00
2018-01-01T03:26:27.538Z,3.00
2018-01-01T03:27:30.653Z,4.00
2018-01-01T03:28:33.767Z,4.00
2018-01-01T03:29:36.829Z,4.00
2018-01-01T03:30:39.848Z,2.00
2018-01-01T03:31:43.274Z,5.00
2018-01-01T03:32:46.284Z,3.50
2018-01-01T03:33:49.348Z,3.50
2018-01-01T03:34:52.416Z,2.00
2018-01-01T03:35:55.464Z,2.50
2018-01-01T03:36:58.494Z,3.00
2018-01-01T03:38:01.954Z,6.00
2018-01-01T03:39:05.011Z,2.00
2018-01-01T03:40:08.024Z,4.00
2018-01-01T03:41:11.022Z,4.00
2018-01-01T03:42:14.051Z,2.00
2018-01-01T03:43:17.042Z,4.00
2018-01-01T03:44:20.568Z,2.00
2018-01-01T03:45:23.618Z,3.50
2018-01-01T03:46:27.305Z,2.00
2018-01-01T03:47:30.428Z,2.00
2018-01-01T03:48:33.535Z,4.00
2018-01-01T03:49:36.653Z,4.00
2018-01-01T03:50:40.077Z,4.00
2018-01-01T03:51:43.218Z,2.00
2018-01-01T03:52:46.308Z,2.00
2018-01-01T03:53:49.473Z,2.00
2018-01-01T03:54:52.523Z,4.00
2018-01-01T03:55:55.633Z,2.00
2018-01-01T03:56:59.184Z,2.00
2018-01-01T03:58:02.297Z,3.00
2018-01-01T03:59:05.339Z,4.00
2018-01-01T04:00:08.367Z,2.00
2018-01-01T04:01:11.342Z,2.00
2018-01-01T04:02:14.438Z,2.00
2018-01-01T04:03:17.970Z,2.00
2018-01-01T04:04:21.067Z,4.00
2018-01-01T04:05:24.227Z,2.00
2018-01-01T04:06:27.238Z,2.00
2018-01-01T04:07:30.290Z,2.00
2018-01-01T04:08:33.420Z,3.50
2018-01-01T04:09:36.933Z,2.00
2018-01-01T04:10:40.032Z,4.00
2018-01-01T04:11:43.034Z,2.00
2018-01-01T04:12:46.084Z,2.00
2018-01-01T04:13:49.122Z,2.00
2018-01-01T04:14:52.202Z,2.00
2018-01-01T04:15:55.308Z,2.00
2018-01-01T04:16:58.290Z,2.00
2018-01-01T04:18:01.353Z,2.00
2018-01-01T04:19:04.360Z,4.00
2018-01-01T04:20:07.448Z,2.50
2018-01-01T04:21:10.520Z,4.00
2018-01-01T04:22:13.529Z,2.00
2018-01-01T04:23:17.166Z,2.50
2018-01-01T04:24:20.138Z,3.00
2018-01-01T04:25:23.118Z,2.50
2018-01-01T04:26:26.081Z,3.50
2018-01-01T04:27:29.409Z,2.00
2018-01-01T04:28:32.499Z,2.00
2018-01-01T04:29:35.569Z,2.00
2018-01-01T04:30:38.629Z,2.00
2018-01-01T04:31:41.669Z,2.00
2018-01-01T04:32:44.731Z,2.00
2018-01-01T04:33:47.772Z,2.00
2018-01-01T04:34:50.804Z,4.00
2018-01-01T04:35:53.799Z,4.00
2018-01-01T04:36:56.754Z,2.00
2018-01-01T04:37:59.673Z,2.00
2018-01-01T04:39:03.061Z,2.00
2018-01-01T04:40:05.996Z,3.50
2018-01-01T04:41:08.954Z,2.00
2018-01-01T04:42:11.883Z,2.00
2018-01-01T04:43:14.873Z,2.00
2018-01-01T04:44:17.919Z,2.00
2018-01-01T04:45:21.371Z,2.00
2018-01-01T04:46:24.417Z,2.00
2018-01-01T04:47:28.874Z,2.00
2018-01-01T04:48:31.954Z,2.00
2018-01-01T04:49:35.103Z,2.00
2018-01-01T04:50:38.103Z,2.00
2018-01-01T04:51:41.129Z,2.00
2018-01-01T04:52:44.938Z,2.00
2018-01-01T04:53:47.862Z,2.00
2018-01-01T04:54:50.890Z,2.00
2018-01-01T04:55:53.914Z,4.00
2018-01-01T04:56:57.272Z,2.00
2018-01-01T04:58:00.401Z,2.00
2018-01-01T04:59:03.450Z,2.00
2018-01-01T05:00:06.577Z,2.00
2018-01-01T05:01:09.636Z,2.00
2018-01-01T05:02:12.640Z,2.00
2018-01-01T05:03:15.667Z,2.00
2018-01-01T05:04:18.719Z,2.00
2018-01-01T05:05:21.758Z,3.00
2018-01-01T05:06:24.801Z,3.00
2018-01-01T05:07:27.867Z,2.00
2018-01-01T05:08:30.921Z,4.00
2018-01-01T05:09:33.987Z,2.00
2018-01-01T05:10:37.123Z,2.00
2018-01-01T05:11:40.144Z,2.00
2018-01-01T05:12:43.159Z,2.00
2018-01-01T05:13:46.525Z,2.00
2018-01-01T05:14:50.358Z,2.00
2018-01-01T05:15:53.399Z,2.00
2018-01-01T05:16:56.437Z,2.00
2018-01-01T05:17:59.543Z,2.00
2018-01-01T05:19:02.555Z,2.00
2018-01-01T05:20:05.626Z,2.00
2018-01-01T05:21:08.763Z,2.00
2018-01-01T05:22:11.823Z,2.00
2018-01-01T05:23:15.382Z,2.00
2018-01-01T05:24:18.477Z,2.00
2018-01-01T05:25:21.897Z,2.00
2018-01-01T05:26:24.962Z,2.00
2018-01-01T05:27:28.013Z,2.00
2018-01-01T05:28:32.070Z,3.00
2018-01-01T05:29:36.222Z,2.00
2018-01-01T05:30:39.325Z,2.00
2018-01-01T05:31:42.865Z,2.00
2018-01-01T05:32:46.076Z,2.00
2018-01-01T05:33:49.104Z,2.00
2018-01-01T05:34:52.109Z,2.00
2018-01-01T05:35:55.187Z,2.00
2018-01-01T05:36:59.447Z,2.00
2018-01-01T05:38:02.818Z,2.00
2018-01-01T05:39:05.805Z,2.00
2018-01-01T05:40:08.862Z,2.00
2018-01-01T05:41:11.904Z,6.00
2018-01-01T05:42:15.104Z,2.00
2018-01-01T05:43:18.130Z,2.00
2018-01-01T05:44:21.420Z,2.00
2018-01-01T05:45:24.418Z,3.00
2018-01-01T05:46:27.353Z,2.00
2018-01-01T05:47:30.337Z,2.00
2018-01-01T05:48:33.281Z,2.00
2018-01-01T05:49:36.874Z,2.50
2018-01-01T05:50:40.376Z,2.00
2018-01-01T05:51:43.433Z,2.00
2018-01-01T05:52:46.502Z,2.00
2018-01-01T05:53:49.614Z,2.00
2018-01-01T05:54:53.077Z,4.00
2018-01-01T05:55:56.187Z,2.00
2018-01-01T05:56:59.820Z,2.00
2018-01-01T05:58:02.866Z,2.00
2018-01-01T05:59:05.928Z,2.00
2018-01-01T06:00:08.886Z,2.00
2018-01-01T06:01:11.917Z,2.00
2018-01-01T06:02:14.940Z,2.00
2018-01-01T06:03:18.248Z,2.00
2018-01-01T06:04:21.334Z,4.00
2018-01-01T06:05:24.401Z,2.00
2018-01-01T06:06:27.487Z,3.50
2018-01-01T06:07:30.516Z,2.00
2018-01-01T06:08:33.597Z,2.00
2018-01-01T06:09:37.857Z,2.00
2018-01-01T06:10:40.885Z,2.00
2018-01-01T06:11:43.905Z,2.00
2018-01-01T06:12:46.962Z,2.00
2018-01-01T06:13:50.034Z,2.00
2018-01-01T06:14:53.571Z,2.00
2018-01-01T06:15:57.486Z,2.00
2018-01-01T06:17:00.556Z,2.00
2018-01-01T06:18:03.679Z,2.00
2018-01-01T06:19:06.776Z,2.00
2018-01-01T06:20:09.893Z,2.00
2018-01-01T06:21:13.020Z,2.00
2018-01-01T06:22:16.087Z,3.00
2018-01-01T06:23:19.176Z,2.00
2018-01-01T06:24:22.263Z,2.00
2018-01-01T06:25:25.210Z,2.00
2018-01-01T06:26:28.133Z,2.00
2018-01-01T06:27:31.385Z,2.00
2018-01-01T06:28:34.536Z,2.00
2018-01-01T06:29:37.585Z,2.00
2018-01-01T06:30:42.035Z,2.00
2018-01-01T06:31:45.442Z,2.00
2018-01-01T06:32:48.485Z,2.00
2018-01-01T06:33:51.978Z,2.00
2018-01-01T06:34:55.033Z,2.00
2018-01-01T06:35:58.195Z,2.00
2018-01-01T06:37:01.246Z,2.00
2018-01-01T06:38:04.368Z,2.00
2018-01-01T06:39:07.450Z,2.00
2018-01-01T06:40:10.904Z,2.00
2018-01-01T06:41:13.925Z,2.00
2018-01-01T06:42:16.982Z,2.00
2018-01-01T06:43:20.116Z,2.00
2018-01-01T06:44:23.133Z,2.00
2018-01-01T06:45:26.195Z,2.00
2018-01-01T06:46:29.228Z,2.00
2018-01-01T06:47:32.280Z,2.00
2018-01-01T06:48:35.368Z,2.00
2018-01-01T06:49:38.416Z,2.00
2018-01-01T06:50:41.442Z,2.00
2018-01-01T06:51:44.456Z,2.00
2018-01-01T06:52:47.524Z,2.00
2018-01-01T06:53:50.603Z,2.00
2018-01-01T06:54:53.664Z,2.00
2018-01-01T06:55:56.702Z,2.00
2018-01-01T06:57:00.136Z,2.00
2018-01-01T06:58:03.154Z,2.00
2018-01-01T06:59:06.225Z,2.00
2018-01-01T07:00:09.287Z,2.00
2018-01-01T07:01:12.367Z,2.00
2018-01-01T07:02:15.345Z,3.50
2018-01-01T07:03:18.644Z,2.00
2018-01-01T07:04:21.534Z,2.00
2018-01-01T07:05:24.428Z,2.00
2018-01-01T07:06:27.453Z,3.00
2018-01-01T07:07:30.423Z,4.00
2018-01-01T07:08:33.732Z,2.00
2018-01-01T07:09:37.087Z,2.00
2018-01-01T07:10:40.086Z,2.00
2018-01-01T07:11:43.061Z,2.00
2018-01-01T07:12:46.003Z,2.00
2018-01-01T07:13:49.045Z,2.00
2018-01-01T07:14:52.051Z,2.00
2018-01-01T07:15:55.395Z,2.00
2018-01-01T07:16:58.354Z,2.00
2018-01-01T07:18:01.386Z,2.00
2018-01-01T07:19:04.344Z,2.00
2018-01-01T07:20:07.469Z,2.00
2018-01-01T07:21:10.526Z,2.00
2018-01-01T07:22:13.885Z,2.00
2018-01-01T07:23:16.935Z,3.00
2018-01-01T07:24:20.014Z,2.00
2018-01-01T07:25:23.041Z,2.00
2018-01-01T07:26:26.104Z,2.00
2018-01-01T07:27:29.098Z,2.00
2018-01-01T07:28:32.661Z,2.00
2018-01-01T07:29:35.725Z,2.00
2018-01-01T07:30:38.755Z,3.50
2018-01-01T07:31:41.802Z,2.00
2018-01-01T07:32:44.792Z,2.00
2018-01-01T07:33:47.834Z,2.00
2018-01-01T07:34:50.800Z,2.50
2018-01-01T07:35:53.834Z,2.00
2018-01-01T07:36:56.755Z,2.00
2018-01-01T07:37:59.681Z,2.00
2018-01-01T07:39:02.634Z,2.00
2018-01-01T07:40:05.672Z,2.00
2018-01-01T07:41:08.607Z,2.00
2018-01-01T07:42:11.873Z,2.00
2018-01-01T07:43:14.795Z,2.00
2018-01-01T07:44:17.870Z,2.00
2018-01-01T07:45:20.912Z,2.00
2018-01-01T07:46:24.986Z,3.50
2018-01-01T07:47:28.074Z,2.00
2018-01-01T07:48:31.502Z,2.00
2018-01-01T07:49:34.573Z,2.00
2018-01-01T07:50:37.573Z,2.00
2018-01-01T07:51:40.624Z,2.00
2018-01-01T07:52:43.684Z,2.00
2018-01-01T07:53:46.706Z,2.00
2018-01-01T07:54:49.821Z,2.00
2018-01-01T07:55:52.845Z,2.00
2018-01-01T07:56:55.928Z,2.00
2018-01-01T07:57:58.906Z,2.00
2018-01-01T07:59:01.899Z,3.00
2018-01-01T08:00:05.350Z,2.00
2018-01-01T08:01:08.380Z,2.00
2018-01-01T08:02:11.620Z,5.50
2018-01-01T08:03:14.640Z,2.00
2018-01-01T08:04:17.688Z,2.00
2018-01-01T08:05:20.651Z,2.00
2018-01-01T08:06:23.983Z,2.00
2018-01-01T08:07:27.025Z,2.00
2018-01-01T08:08:30.021Z,2.00
2018-01-01T08:09:32.977Z,2.00
2018-01-01T08:10:35.942Z,2.00
2018-01-01T08:11:39.079Z,2.00
2018-01-01T08:12:42.464Z,4.00
2018-01-01T08:13:45.518Z,2.00
2018-01-01T08:14:48.592Z,2.00
2018-01-01T08:15:51.554Z,2.00
2018-01-01T08:16:54.503Z,2.00
2018-01-01T08:17:57.465Z,2.00
2018-01-01T08:19:00.839Z,3.00
2018-01-01T08:20:03.884Z,2.00
2018-01-01T08:21:06.974Z,2.00
2018-01-01T08:22:10.022Z,2.00
2018-01-01T08:23:13.126Z,2.00
2018-01-01T08:24:16.184Z,4.00
2018-01-01T08:25:19.642Z,2.00
2018-01-01T08:26:22.691Z,2.00
2018-01-01T08:27:25.769Z,2.00
2018-01-01T08:28:28.792Z,2.00
2018-01-01T08:29:31.842Z,2.00
2018-01-01T08:30:34.936Z,2.00
2018-01-01T08:31:38.293Z,3.00
2018-01-01T08:32:41.355Z,2.00
2018-01-01T08:33:44.427Z,2.00
2018-01-01T08:34:47.486Z,2.00
2018-01-01T08:35:50.570Z,2.00
2018-01-01T08:36:53.662Z,2.00
2018-01-01T08:37:57.170Z,2.00
2018-01-01T08:39:00.215Z,2.00
2018-01-01T08:40:03.270Z,2.00
2018-01-01T08:41:06.316Z,2.00
2018-01-01T08:42:09.345Z,2.00
2018-01-01T08:43:12.384Z,2.00
2018-01-01T08:44:15.838Z,2.00
2018-01-01T08:45:18.884Z,2.00
2018-01-01T08:46:21.914Z,2.00
2018-01-01T08:47:25.026Z,2.00
2018-01-01T08:48:28.086Z,2.00
2018-01-01T08:49:31.133Z,3.50
2018-01-01T08:50:34.536Z,2.00
2018-01-01T08:51:37.575Z,2.00
2018-01-01T08:52:40.622Z,2.00
2018-01-01T08:53:43.671Z,2.00
2018-01-01T08:54:46.727Z,2.00
2018-01-01T08:55:49.796Z,2.00
2018-01-01T08:56:53.233Z,2.00
2018-01-01T08:57:56.308Z,2.00
2018-01-01T08:58:59.362Z,2.00
2018-01-01T09:00:02.508Z,2.00
2018-01-01T09:01:05.530Z,2.00
2018-01-01T09:02:08.611Z,2.00
2018-01-01T09:03:11.628Z,2.00
2018-01-01T09:04:14.840Z,3.50
2018-01-01T09:05:17.924Z,2.00
2018-01-01T09:06:20.994Z,2.00
2018-01-01T09:07:24.102Z,2.00
2018-01-01T09:08:27.597Z,2.00
2018-01-01T09:09:30.706Z,4.00
2018-01-01T09:10:33.897Z,2.00
2018-01-01T09:11:36.937Z,2.00
2018-01-01T09:12:39.923Z,2.00
2018-01-01T09:13:42.967Z,2.00
2018-01-01T09:14:46.311Z,2.00
2018-01-01T09:15:49.330Z,2.00
2018-01-01T09:16:52.435Z,2.00
2018-01-01T09:17:55.497Z,2.00
2018-01-01T09:18:58.971Z,2.00
2018-01-01T09:20:01.997Z,2.00
2018-01-01T09:21:06.156Z,2.00
2018-01-01T09:22:09.123Z,2.00
2018-01-01T09:23:12.197Z,2.00
2018-01-01T09:24:15.226Z,2.00
2018-01-01T09:25:18.353Z,2.00
2018-01-01T09:26:21.500Z,2.00
2018-01-01T09:27:24.862Z,2.00
2018-01-01T09:28:27.895Z,2.00
2018-01-01T09:29:30.976Z,2.00
2018-01-01T09:30:34.055Z,2.00
2018-01-01T09:31:37.154Z,2.00
2018-01-01T09:32:40.237Z,2.00
2018-01-01T09:33:43.776Z,2.00
2018-01-01T09:34:46.826Z,2.00
2018-01-01T09:35:49.871Z,2.00
2018-01-01T09:36:53.022Z,4.00
2018-01-01T09:37:56.094Z,2.00
2018-01-01T09:38:59.181Z,2.00
2018-01-01T09:40:02.546Z,2.00
2018-01-01T09:41:05.618Z,2.00
2018-01-01T09:42:08.667Z,2.00
2018-01-01T09:43:11.739Z,2.00
2018-01-01T09:44:14.838Z,2.00
2018-01-01T09:45:17.845Z,2.00
2018-01-01T09:46:21.297Z,2.00
2018-01-01T09:47:24.380Z,2.00
2018-01-01T09:48:27.471Z,2.00
2018-01-01T09:49:30.520Z,4.00
2018-01-01T09:50:33.541Z,2.00
2018-01-01T09:51:36.666Z,2.00
2018-01-01T09:52:40.205Z,2.00
2018-01-01T09:53:43.290Z,3.50
2018-01-01T09:54:46.350Z,2.50
2018-01-01T09:55:49.495Z,2.00
2018-01-01T09:56:52.589Z,2.00
2018-01-01T09:57:55.655Z,2.00
2018-01-01T09:58:59.187Z,2.50
2018-01-01T10:00:02.543Z,2.00
2018-01-01T10:01:05.599Z,2.00
2018-01-01T10:02:08.700Z,2.50
2018-01-01T10:03:11.740Z,4.00
2018-01-01T10:04:14.844Z,4.00
2018-01-01T10:05:18.260Z,2.00
2018-01-01T10:07:35.058Z,2.00
2018-01-01T10:08:39.011Z,2.00
2018-01-01T10:09:43.062Z,2.00
2018-01-01T10:10:47.021Z,3.50
2018-01-01T10:11:51.513Z,2.00
2018-01-01T10:12:55.614Z,2.00
2018-01-01T10:14:00.142Z,2.00
2018-01-01T10:15:04.138Z,2.00
2018-01-01T10:16:08.087Z,2.00
2018-01-01T10:17:12.327Z,2.00
2018-01-01T10:18:17.664Z,2.00
2018-01-01T10:19:21.659Z,2.00
2018-01-01T10:20:24.718Z,2.00
2018-01-01T10:21:27.828Z,4.00
2018-01-01T10:22:30.900Z,4.50
2018-01-01T10:23:33.973Z,2.00
2018-01-01T10:24:37.206Z,2.00
2018-01-01T10:25:40.304Z,2.00
2018-01-01T10:26:43.345Z,2.00
2018-01-01T10:27:46.429Z,2.00
2018-01-01T10:28:49.498Z,2.00
2018-01-01T10:29:53.006Z,2.00
2018-01-01T10:30:56.739Z,2.00
2018-01-01T10:31:59.782Z,2.00
2018-01-01T10:33:03.414Z,2.00
2018-01-01T10:34:06.428Z,2.00
2018-01-01T10:35:09.617Z,2.00
2018-01-01T10:36:13.145Z,3.50
2018-01-01T10:37:16.349Z,2.00
2018-01-01T10:38:19.449Z,4.00
2018-01-01T10:39:22.484Z,2.00
2018-01-01T10:40:25.517Z,2.00
2018-01-01T10:41:28.570Z,2.00
2018-01-01T10:42:31.985Z,2.00
2018-01-01T10:43:35.226Z,2.00
2018-01-01T10:44:38.268Z,2.00
2018-01-01T10:45:41.413Z,2.00
2018-01-01T10:46:44.446Z,2.00
2018-01-01T10:47:47.486Z,2.00
2018-01-01T10:48:50.932Z,4.00
2018-01-01T10:49:53.999Z,2.00
2018-01-01T10:50:57.100Z,2.00
2018-01-01T10:52:00.320Z,4.00
2018-01-01T10:53:03.386Z,2.00
2018-01-01T10:54:06.419Z,2.00
2018-01-01T10:55:09.676Z,4.00
2018-01-01T10:56:12.680Z,2.00
2018-01-01T10:57:15.728Z,2.00
2018-01-01T10:58:18.783Z,4.00
2018-01-01T10:59:21.878Z,4.00
2018-01-01T11:00:25.075Z,3.50
2018-01-01T11:01:28.505Z,3.50
2018-01-01T11:02:32.463Z,3.00
2018-01-01T11:03:35.626Z,2.00
2018-01-01T11:04:38.631Z,2.00
2018-01-01T11:05:41.614Z,2.00
2018-01-01T11:06:44.666Z,5.50
2018-01-01T11:07:48.199Z,2.00
2018-01-01T11:08:51.346Z,4.50
2018-01-01T11:09:54.394Z,4.00
2018-01-01T11:10:57.432Z,2.00
2018-01-01T11:12:00.562Z,2.00
2018-01-01T11:13:03.714Z,3.00
2018-01-01T11:14:07.256Z,2.00
2018-01-01T11:15:10.301Z,2.00
2018-01-01T11:16:13.340Z,4.00
2018-01-01T11:17:16.303Z,3.50
2018-01-01T11:18:19.244Z,2.00
2018-01-01T11:19:22.178Z,3.50
2018-01-01T11:20:25.589Z,4.00
2018-01-01T11:21:28.569Z,2.00
2018-01-01T11:22:31.659Z,4.00
2018-01-01T11:23:34.715Z,4.50
2018-01-01T11:24:37.818Z,2.00
2018-01-01T11:25:40.766Z,4.00
2018-01-01T11:26:44.091Z,2.00
2018-01-01T11:27:47.958Z,2.00
2018-01-01T11:28:50.999Z,2.00
2018-01-01T11:29:54.129Z,2.00
2018-01-01T11:30:57.205Z,4.50
2018-01-01T11:32:00.240Z,2.00
2018-01-01T11:33:03.694Z,2.00
2018-01-01T11:34:06.719Z,2.00
2018-01-01T11:35:09.946Z,2.00
2018-01-01T11:36:13.014Z,2.00
2018-01-01T11:37:16.090Z,2.00
2018-01-01T11:38:19.099Z,2.00
2018-01-01T11:39:22.525Z,2.00
2018-01-01T11:40:25.712Z,2.00
2018-01-01T11:41:28.758Z,3.00
2018-01-01T11:42:31.899Z,3.00
2018-01-01T11:43:34.924Z,2.00
2018-01-01T11:44:38.028Z,2.00
2018-01-01T11:45:41.177Z,2.00
2018-01-01T11:46:44.296Z,3.00
2018-01-01T11:47:47.392Z,2.00
2018-01-01T11:48:50.516Z,3.00
2018-01-01T11:49:53.631Z,4.00
2018-01-01T11:50:56.775Z,6.00
2018-01-01T11:51:59.858Z,2.00
2018-01-01T11:53:02.955Z,2.00
2018-01-01T11:54:06.004Z,4.00
2018-01-01T11:55:09.084Z,2.00
2018-01-01T11:56:12.516Z,4.00
2018-01-01T11:57:15.573Z,3.00
2018-01-01T11:58:18.608Z,4.00
2018-01-01T11:59:21.757Z,4.00
2018-01-01T12:00:24.838Z,3.00
2018-01-01T12:01:27.878Z,4.00
2018-01-01T12:02:31.336Z,2.00
2018-01-01T12:03:34.403Z,2.00
2018-01-01T12:04:37.507Z,3.50
2018-01-01T12:05:40.567Z,4.00
2018-01-01T12:06:43.639Z,2.50
2018-01-01T12:07:46.707Z,2.50
2018-01-01T12:08:50.064Z,4.00
2018-01-01T12:09:53.160Z,2.50
2018-01-01T12:10:56.239Z,4.00
2018-01-01T12:11:59.335Z,8.00
2018-01-01T12:13:02.428Z,2.00
2018-01-01T12:14:05.795Z,2.00
2018-01-01T12:15:09.438Z,2.00
2018-01-01T12:16:12.515Z,4.50
2018-01-01T12:17:15.878Z,4.00
2018-01-01T12:18:18.993Z,2.00
2018-01-01T12:19:22.065Z,2.50
2018-01-01T12:20:25.124Z,2.00
2018-01-01T12:21:28.497Z,2.00
2018-01-01T12:22:31.581Z,4.50
2018-01-01T12:23:34.698Z,4.00
2018-01-01T12:24:37.814Z,4.00
2018-01-01T12:25:40.882Z,4.00
2018-01-01T12:26:44.024Z,4.00
2018-01-01T12:27:47.432Z,2.00
2018-01-01T12:28:50.448Z,2.00
2018-01-01T12:29:53.410Z,2.00
2018-01-01T12:30:56.371Z,2.00
2018-01-01T12:31:59.536Z,4.00
2018-01-01T12:33:02.510Z,4.00
2018-01-01T12:34:05.982Z,3.00
2018-01-01T12:35:09.093Z,2.50
2018-01-01T12:36:12.209Z,2.00
2018-01-01T12:37:15.311Z,3.00
2018-01-01T12:38:18.436Z,3.50
2018-01-01T12:39:21.477Z,2.50
2018-01-01T12:40:24.852Z,2.00
2018-01-01T12:41:27.878Z,2.00
2018-01-01T12:42:30.926Z,2.00
2018-01-01T12:43:34.010Z,2.00
2018-01-01T12:44:37.112Z,4.00
2018-01-01T12:45:40.189Z,4.00
2018-01-01T12:46:43.733Z,3.00
2018-01-01T12:47:46.792Z,4.00
2018-01-01T12:48:49.977Z,4.00
2018-01-01T12:49:53.057Z,4.00
2018-01-01T12:50:56.180Z,2.50
2018-01-01T12:51:59.278Z,4.00
2018-01-01T12:53:02.862Z,3.50
2018-01-01T12:54:05.976Z,5.50
2018-01-01T12:55:09.108Z,9.50
2018-01-01T12:56:12.198Z,10.00
2018-01-01T12:57:15.378Z,10.00
2018-01-01T12:58:18.445Z,2.00
2018-01-01T12:59:21.928Z,3.00
2018-01-01T13:00:25.006Z,5.50
2018-01-01T13:01:28.058Z,3.50
2018-01-01T13:02:31.223Z,4.00
2018-01-01T13:03:34.269Z,4.00
2018-01-01T13:04:37.318Z,4.00
2018-01-01T13:05:40.836Z,4.00
2018-01-01T13:06:43.892Z,2.50
2018-01-01T13:07:46.965Z,4.00
2018-01-01T13:08:50.038Z,4.00
2018-01-01T13:09:53.208Z,4.00
2018-01-01T13:10:56.225Z,2.50
2018-01-01T13:11:59.641Z,4.00
2018-01-01T13:13:02.866Z,4.00
2018-01-01T13:14:05.980Z,5.50
2018-01-01T13:15:08.920Z,2.50
2018-01-01T13:16:11.859Z,6.00
2018-01-01T13:17:15.267Z,5.50
2018-01-01T13:18:18.236Z,6.00
2018-01-01T13:19:22.036Z,4.00
2018-01-01T13:20:25.211Z,4.50
2018-01-01T13:21:28.285Z,2.50
2018-01-01T13:22:31.410Z,4.00
2018-01-01T13:23:34.953Z,4.00
2018-01-01T13:24:38.124Z,2.00
2018-01-01T13:25:41.200Z,5.50
2018-01-01T13:26:44.241Z,4.00
2018-01-01T13:27:47.356Z,4.00
2018-01-01T13:28:50.477Z,5.00
2018-01-01T13:29:54.020Z,6.00
2018-01-01T13:30:57.305Z,4.50
2018-01-01T13:32:00.361Z,4.50
2018-01-01T13:33:03.455Z,2.50
2018-01-01T13:34:06.578Z,2.00
2018-01-01T13:35:09.687Z,3.00
2018-01-01T13:36:13.160Z,3.00
2018-01-01T13:37:16.220Z,3.50
2018-01-01T13:38:19.441Z,10.00
2018-01-01T13:39:22.989Z,9.50
2018-01-01T13:40:26.048Z,3.50
2018-01-01T13:41:29.096Z,3.00
2018-01-01T13:42:32.616Z,3.00
2018-01-01T13:43:35.668Z,2.00
2018-01-01T13:44:38.796Z,2.00
2018-01-01T13:45:42.375Z,6.00
2018-01-01T13:46:45.422Z,4.00
2018-01-01T13:47:48.442Z,4.00
2018-01-01T13:48:51.792Z,5.00
2018-01-01T13:49:54.752Z,4.50
2018-01-01T13:50:57.667Z,6.00
2018-01-01T13:52:00.703Z,3.00
2018-01-01T13:53:03.678Z,2.50
2018-01-01T13:54:06.784Z,3.50
2018-01-01T13:55:10.160Z,6.50
2018-01-01T13:56:13.240Z,3.00
2018-01-01T13:57:16.306Z,4.00
2018-01-01T13:58:19.380Z,8.00
2018-01-01T13:59:22.453Z,5.50
2018-01-01T14:00:25.556Z,5.00